Time;durP1;ratioP1;P1;durP2;ratioP2;P2;SDS_P1;SDS_P2;PMS_P1;PMS_P2;Temp;Humidity;BMP_temperature;BMP_pressure;BME280_temperature;BME280_humidity;BME280_pressure;Samples;Min_cycle;Max_cycle;Signal;HPM_P1;HPM_P2
2022/11/12 00:00:05;;;;;;;;;;;;;;;7.49;93.31;99604.09;4409150;32;19993;-78
2022/11/12 00:02:32;;;;;;;;;;;;;;;7.58;92.95;99601.50;4395984;32;20411;-78
2022/11/12 00:04:58;;;;;;;;;;;;;;;7.19;94.59;99598.25;4409605;32;19977;-78
2022/11/12 00:07:25;;;;;;;;;;;;;;;7.17;93.82;99599.97;4409259;32;19966;-78
2022/11/12 00:09:52;;;;;;;;;;;;;;;7.45;92.90;99589.59;4409495;32;19992;-78
2022/11/12 00:12:18;;;;;;;;;;;;;;;7.48;91.65;99584.44;4409598;32;19973;-78
2022/11/12 00:14:45;;;;;;;;;;;;;;;7.50;91.54;99575.00;4409117;32;19977;-78
2022/11/12 00:17:12;;;;;;;;;;;;;;;7.25;92.96;99584.56;4409477;32;20307;-78
2022/11/12 00:19:38;;;;;;;;;;;;;;;7.29;93.20;99582.81;4409117;32;20338;-78
2022/11/12 00:22:05;;;;;;;;;;;;;;;7.42;94.52;99581.87;4409069;32;20040;-78
2022/11/12 00:24:32;;;;;;;;;;;;;;;7.58;94.35;99578.38;4409431;32;19977;-78
2022/11/12 00:26:58;;;;;;;;;;;;;;;7.49;95.65;99581.84;4409279;32;19969;-79
2022/11/12 00:29:25;;;;;;;;;;;;;;;7.42;97.42;99585.28;4408851;32;19981;-78
2022/11/12 00:31:52;;;;;;;;;;;;;;;7.37;98.13;99581.91;4410683;32;19977;-78
2022/11/12 00:34:19;;;;;;;;;;;;;;;7.98;96.37;99575.53;4411360;32;19969;-78
2022/11/12 00:36:45;;;;;;;;;;;;;;;8.07;95.33;99580.56;4411095;32;19970;-78
2022/11/12 00:39:12;;;;;;;;;;;;;;;8.32;94.33;99576.09;4411157;32;19982;-78
2022/11/12 00:41:39;;;;;;;;;;;;;;;8.44;93.54;99578.56;4411381;32;19977;-78
2022/11/12 00:44:05;;;;;;;;;;;;;;;8.45;93.09;99563.97;4411106;32;20750;-78
2022/11/12 00:46:32;;;;;;;;;;;;;;;8.27;94.87;99552.97;4411322;32;19973;-78
2022/11/12 00:48:59;;;;;;;;;;;;;;;8.17;97.42;99553.91;4410953;32;19977;-78
2022/11/12 00:51:25;;;;;;;;;;;;;;;8.14;98.05;99553.94;4411352;32;19989;-78
2022/11/12 00:53:52;;;;;;;;;;;;;;;7.84;98.61;99562.75;4411228;32;19973;-78
2022/11/12 00:56:19;;;;;;;;;;;;;;;8.03;97.24;99553.19;4410966;32;19969;-78
2022/11/12 00:58:45;;;;;;;;;;;;;;;7.62;97.66;99554.34;4411180;32;19986;-78
2022/11/12 01:01:13;;;;;;;;;;;;;;;7.24;100.00;99554.59;4411033;32;19981;-78
2022/11/12 01:03:40;;;;;;;;;;;;;;;7.05;100.00;99553.00;4410858;32;20015;-78
2022/11/12 01:06:08;;;;;;;;;;;;;;;7.60;100.00;99552.66;4411212;32;20000;-78
2022/11/12 01:08:34;;;;;;;;;;;;;;;8.09;98.93;99553.16;4411255;32;19977;-78
2022/11/12 01:11:27;;;;;;;;;;;;;;;7.99;99.40;99542.09;4410724;32;20449;-78
2022/11/12 01:13:55;;;;;;;;;;;;;;;8.19;97.90;99538.47;4409044;32;19970;-78
2022/11/12 01:16:22;;;;;;;;;;;;;;;8.06;97.62;99536.00;4411088;32;20331;-78
2022/11/12 01:18:56;;;;;;;;;;;;;;;8.41;97.09;99540.03;4410504;32;19992;-78
2022/11/12 01:21:24;;;;;;;;;;;;;;;8.57;95.90;99536.41;4411036;32;19977;-78
2022/11/12 01:23:50;;;;;;;;;;;;;;;8.66;95.27;99538.03;4410744;32;19973;-78
2022/11/12 01:26:18;;;;;;;;;;;;;;;8.99;94.00;99534.19;4411136;32;19965;-78
2022/11/12 01:28:45;;;;;;;;;;;;;;;8.82;94.90;99529.25;4397334;32;19992;-79
2022/11/12 01:31:13;;;;;;;;;;;;;;;8.93;94.26;99527.41;4410569;32;20000;-78
2022/11/12 01:33:40;;;;;;;;;;;;;;;8.86;94.75;99532.66;4410887;32;20478;-78
2022/11/12 01:36:07;;;;;;;;;;;;;;;9.15;93.73;99535.72;4411064;32;19969;-78
2022/11/12 01:38:37;;;;;;;;;;;;;;;9.00;94.31;99543.63;4410692;32;19996;-78
2022/11/12 01:41:04;;;;;;;;;;;;;;;8.80;95.53;99536.13;4410526;32;19996;-78
2022/11/12 01:43:31;;;;;;;;;;;;;;;9.03;94.36;99528.13;4411018;32;19970;-78
2022/11/12 01:45:58;;;;;;;;;;;;;;;8.94;93.78;99529.13;4410677;32;20020;-78
2022/11/12 01:48:26;;;;;;;;;;;;;;;9.08;93.52;99528.09;4410994;32;20399;-78
2022/11/12 01:50:53;;;;;;;;;;;;;;;9.26;92.55;99526.13;4410887;32;20016;-78
2022/11/12 01:53:20;;;;;;;;;;;;;;;9.20;92.70;99521.03;4410575;32;19984;-78
2022/11/12 01:55:46;;;;;;;;;;;;;;;9.59;90.99;99502.47;4397247;32;20299;-78
2022/11/12 01:58:14;;;;;;;;;;;;;;;9.23;91.90;99507.25;4410890;32;19981;-79
2022/11/12 02:00:41;;;;;;;;;;;;;;;8.96;93.33;99509.34;4396547;32;19965;-79
2022/11/12 02:03:33;;;;;;;;;;;;;;;8.93;92.34;99513.66;4410968;32;19970;-79
2022/11/12 02:06:04;;;;;;;;;;;;;;;8.68;92.97;99510.56;4408664;32;20043;-78
2022/11/12 02:08:31;;;;;;;;;;;;;;;8.84;93.27;99514.66;4397188;32;19982;-78
2022/11/12 02:10:58;;;;;;;;;;;;;;;9.27;91.40;99508.94;4410853;32;19977;-78
2022/11/12 02:16:10;;;;;;;;;;;;;;;8.96;92.99;99511.94;4410732;32;20011;-78
2022/11/12 02:18:36;;;;;;;;;;;;;;;8.97;93.31;99500.75;4410540;32;19978;-78
2022/11/12 02:21:04;;;;;;;;;;;;;;;8.90;92.14;99501.69;4410192;32;19977;-78
2022/11/12 02:23:31;;;;;;;;;;;;;;;8.85;91.71;99502.62;4410719;32;19988;-78
2022/11/12 02:25:58;;;;;;;;;;;;;;;8.72;91.02;99506.22;4410671;32;19970;-79
2022/11/12 02:28:25;;;;;;;;;;;;;;;8.66;90.48;99504.59;4410312;32;19988;-78
2022/11/12 02:30:52;;;;;;;;;;;;;;;8.87;89.50;99509.47;4397041;32;19993;-78
2022/11/12 02:33:19;;;;;;;;;;;;;;;9.05;87.87;99510.12;4410620;32;19974;-78
2022/11/12 02:35:46;;;;;;;;;;;;;;;8.97;88.18;99502.47;4410350;32;20312;-78
2022/11/12 02:38:12;;;;;;;;;;;;;;;8.67;89.64;99498.56;4410713;32;19993;-78
2022/11/12 02:40:39;;;;;;;;;;;;;;;8.87;88.81;99496.59;4410298;32;20004;-78
2022/11/12 02:43:06;;;;;;;;;;;;;;;8.18;92.18;99500.78;4410432;32;19988;-78
2022/11/12 02:45:32;;;;;;;;;;;;;;;8.62;90.81;99488.34;4410606;32;20306;-78
2022/11/12 02:47:59;;;;;;;;;;;;;;;8.61;91.79;99490.91;4410423;32;20020;-78
2022/11/12 02:50:26;;;;;;;;;;;;;;;8.67;90.81;99483.13;4410377;32;19978;-78
2022/11/12 02:52:52;;;;;;;;;;;;;;;8.73;90.56;99484.78;4409859;32;19988;-78
2022/11/12 02:55:19;;;;;;;;;;;;;;;8.28;93.00;99480.09;4409964;32;19965;-78
2022/11/12 02:57:46;;;;;;;;;;;;;;;8.24;94.23;99477.59;4410505;32;20005;-78
2022/11/12 03:00:13;;;;;;;;;;;;;;;8.38;94.97;99478.31;4410246;32;20031;-78
2022/11/12 03:02:41;;;;;;;;;;;;;;;8.28;95.75;99472.38;4410042;32;20343;-78
2022/11/12 03:05:09;;;;;;;;;;;;;;;8.41;95.48;99465.44;4410422;32;19984;-78
2022/11/12 03:07:36;;;;;;;;;;;;;;;8.45;95.10;99471.38;4410360;32;19973;-78
2022/11/12 03:10:04;;;;;;;;;;;;;;;8.53;94.08;99470.44;4409932;32;19992;-78
2022/11/12 03:12:31;;;;;;;;;;;;;;;8.30;94.41;99457.81;4410440;32;20010;-78
2022/11/12 03:14:57;;;;;;;;;;;;;;;8.36;94.07;99469.75;4410323;32;20335;-78
2022/11/12 03:17:24;;;;;;;;;;;;;;;8.32;94.25;99468.94;4410074;32;19978;-79
2022/11/12 03:19:51;;;;;;;;;;;;;;;8.42;93.71;99471.44;4409906;32;20015;-79
2022/11/12 03:22:18;;;;;;;;;;;;;;;8.51;93.54;99477.31;4410087;32;19978;-78
2022/11/12 03:24:44;;;;;;;;;;;;;;;8.56;93.43;99472.09;4409850;32;19970;-78
2022/11/12 03:27:11;;;;;;;;;;;;;;;8.65;94.27;99477.16;4410161;32;19992;-79
2022/11/12 03:29:38;;;;;;;;;;;;;;;8.61;96.18;99475.47;4409999;32;19996;-78
2022/11/12 03:32:04;;;;;;;;;;;;;;;8.51;98.89;99466.19;4409808;32;19973;-78
2022/11/12 03:34:31;;;;;;;;;;;;;;;8.29;100.00;99460.37;4410079;32;20244;-78
2022/11/12 03:36:58;;;;;;;;;;;;;;;8.52;100.00;99460.16;4410033;32;19978;-79
2022/11/12 03:39:24;;;;;;;;;;;;;;;9.01;98.08;99467.25;4409618;32;19969;-79
2022/11/12 03:41:51;;;;;;;;;;;;;;;8.82;97.35;99461.47;4409810;32;19969;-79
2022/11/12 03:44:18;;;;;;;;;;;;;;;8.45;98.56;99459.37;4409694;32;19981;-79
2022/11/12 03:46:44;;;;;;;;;;;;;;;8.45;98.91;99458.53;4410009;32;19973;-79
2022/11/12 03:49:11;;;;;;;;;;;;;;;8.75;97.52;99452.16;4409742;32;20004;-79
2022/11/12 03:51:38;;;;;;;;;;;;;;;8.64;96.29;99455.72;4409449;32;19974;-79
2022/11/12 03:54:04;;;;;;;;;;;;;;;8.95;95.59;99453.59;4409814;32;20073;-78
2022/11/12 03:56:31;;;;;;;;;;;;;;;8.54;97.23;99448.12;4409803;32;19977;-79
2022/11/12 03:58:58;;;;;;;;;;;;;;;8.77;97.10;99451.25;4409347;32;19996;-78
2022/11/12 04:01:24;;;;;;;;;;;;;;;9.12;93.75;99449.91;4409505;32;19970;-79
2022/11/12 04:03:51;;;;;;;;;;;;;;;9.45;91.66;99451.97;4409689;32;20023;-79
2022/11/12 04:09:03;;;;;;;;;;;;;;;8.99;91.01;99442.38;4411539;32;19993;-78
2022/11/12 04:11:30;;;;;;;;;;;;;;;8.79;93.96;99443.50;4411489;32;19969;-79
2022/11/12 04:13:57;;;;;;;;;;;;;;;9.28;91.00;99433.38;4411150;32;19969;-79
2022/11/12 04:22:00;;;;;;;;;;;;;;;8.80;94.02;99425.47;4411407;32;19978;-79
2022/11/12 04:27:14;;;;;;;;;;;;;;;9.16;92.77;99412.97;4411178;32;20335;-79
2022/11/12 04:32:26;;;;;;;;;;;;;;;9.89;86.97;99414.31;4411491;32;20290;-79
2022/11/12 04:34:53;;;;;;;;;;;;;;;9.72;87.24;99421.47;4411116;32;20240;-79
2022/11/12 04:37:21;;;;;;;;;;;;;;;9.29;89.13;99419.63;4411400;32;19977;-79
2022/11/12 04:39:49;;;;;;;;;;;;;;;9.46;88.37;99419.31;4411308;32;20057;-79
2022/11/12 04:45:04;;;;;;;;;;;;;;;8.89;92.60;99411.63;4411469;32;20000;-79
2022/11/12 04:47:30;;;;;;;;;;;;;;;8.80;92.40;99412.59;4411052;32;20418;-79
2022/11/12 04:49:57;;;;;;;;;;;;;;;9.16;90.67;99411.25;4411253;32;20039;-79
2022/11/12 04:52:24;;;;;;;;;;;;;;;9.12;89.42;99419.88;4411153;32;19988;-79
2022/11/12 04:54:51;;;;;;;;;;;;;;;9.37;89.05;99417.78;4410960;32;19962;-79
2022/11/12 04:57:18;;;;;;;;;;;;;;;9.82;86.55;99415.28;4411322;32;19974;-79
2022/11/12 04:59:45;;;;;;;;;;;;;;;9.17;88.89;99414.66;4411218;32;19981;-79
2022/11/12 05:02:12;;;;;;;;;;;;;;;8.93;89.09;99414.16;4410827;32;20267;-79
2022/11/12 05:04:39;;;;;;;;;;;;;;;9.24;87.41;99419.66;4411278;32;19969;-79
2022/11/12 05:07:05;;;;;;;;;;;;;;;9.15;85.59;99419.84;4411329;32;19977;-79
2022/11/12 05:09:32;;;;;;;;;;;;;;;8.79;87.51;99420.34;4410776;32;20040;-79
2022/11/12 05:11:59;;;;;;;;;;;;;;;8.55;89.68;99424.94;4411178;32;20248;-79
2022/11/12 05:14:26;;;;;;;;;;;;;;;8.51;90.60;99418.16;4411145;32;19962;-79
2022/11/12 05:16:52;;;;;;;;;;;;;;;8.66;90.80;99419.66;4410288;32;19978;-79
2022/11/12 05:19:19;;;;;;;;;;;;;;;8.73;90.68;99430.75;4410800;32;19993;-79
2022/11/12 05:22:04;;;;;;;;;;;;;;;9.23;87.55;99432.56;4410991;32;19965;-79
2022/11/12 05:24:31;;;;;;;;;;;;;;;9.39;85.74;99439.22;4410978;32;20304;-79
2022/11/12 05:27:12;;;;;;;;;;;;;;;9.11;87.13;99443.91;4398583;32;20365;-79
2022/11/12 05:29:39;;;;;;;;;;;;;;;9.35;85.86;99447.00;4410648;32;19996;-78
2022/11/12 05:32:06;;;;;;;;;;;;;;;9.95;82.44;99447.69;4411038;32;19984;-79
2022/11/12 05:34:33;;;;;;;;;;;;;;;9.75;82.58;99449.78;4411053;32;19969;-79
2022/11/12 05:37:03;;;;;;;;;;;;;;;10.01;81.91;99444.19;4410657;32;20549;-79
2022/11/12 05:39:30;;;;;;;;;;;;;;;9.82;81.81;99447.06;4410894;32;19989;-79
2022/11/12 05:41:56;;;;;;;;;;;;;;;9.30;84.39;99444.50;4410832;32;19965;-79
2022/11/12 05:44:38;;;;;;;;;;;;;;;8.46;88.41;99445.66;4410739;32;19988;-78
2022/11/12 05:47:05;;;;;;;;;;;;;;;8.19;90.89;99446.78;4410993;32;19977;-79
2022/11/12 05:49:32;;;;;;;;;;;;;;;7.86;92.18;99458.25;4410851;32;20267;-79
2022/11/12 05:51:58;;;;;;;;;;;;;;;9.02;86.31;99456.06;4410623;32;19966;-79
2022/11/12 05:54:25;;;;;;;;;;;;;;;9.50;83.27;99463.06;4411014;32;19970;-78
2022/11/12 05:56:55;;;;;;;;;;;;;;;9.35;82.31;99462.44;4411003;32;20044;-79
2022/11/12 05:59:21;;;;;;;;;;;;;;;9.63;80.50;99458.56;4410475;32;19977;-79
2022/11/12 06:01:48;;;;;;;;;;;;;;;9.53;81.51;99463.00;4410700;32;20374;-79
2022/11/12 06:04:15;;;;;;;;;;;;;;;9.75;79.35;99457.50;4410721;32;19961;-78
2022/11/12 06:06:42;;;;;;;;;;;;;;;9.36;78.97;99469.28;4410475;32;20084;-79
2022/11/12 06:09:09;;;;;;;;;;;;;;;8.26;83.85;99468.97;4397039;32;19999;-78
2022/11/12 06:11:36;;;;;;;;;;;;;;;8.96;80.98;99472.47;4410375;32;20031;-79
2022/11/12 06:14:03;;;;;;;;;;;;;;;8.82;82.13;99476.91;4410742;32;19984;-79
2022/11/12 06:16:30;;;;;;;;;;;;;;;8.74;82.03;99476.19;4410641;32;20307;-79
2022/11/12 06:18:57;;;;;;;;;;;;;;;8.57;82.93;99481.53;4410040;32;19981;-78
2022/11/12 06:21:23;;;;;;;;;;;;;;;7.74;87.57;99481.47;4410601;32;19988;-78
2022/11/12 06:23:56;;;;;;;;;;;;;;;8.07;87.51;99480.31;4410699;32;19969;-79
2022/11/12 06:26:23;;;;;;;;;;;;;;;7.50;91.74;99485.94;4410521;32;19985;-78
2022/11/12 06:28:50;;;;;;;;;;;;;;;8.21;88.66;99493.06;4410618;32;19997;-78
2022/11/12 06:31:17;;;;;;;;;;;;;;;7.83;90.84;99494.25;4410460;32;19981;-78
2022/11/12 06:33:44;;;;;;;;;;;;;;;8.22;90.33;99497.31;4410244;32;19969;-79
2022/11/12 06:36:12;;;;;;;;;;;;;;;8.29;90.41;99497.22;4410629;32;19988;-79
2022/11/12 06:38:39;;;;;;;;;;;;;;;8.95;86.34;99496.50;4410535;32;19982;-79
2022/11/12 06:41:06;;;;;;;;;;;;;;;8.31;89.54;99499.81;4410126;32;19978;-79
2022/11/12 06:43:33;;;;;;;;;;;;;;;8.67;86.87;99511.44;4410611;32;19969;-79
2022/11/12 06:46:00;;;;;;;;;;;;;;;8.79;86.49;99518.16;4410612;32;19978;-79
2022/11/12 06:48:27;;;;;;;;;;;;;;;8.57;86.79;99513.25;4410207;32;19973;-79
2022/11/12 06:50:55;;;;;;;;;;;;;;;8.91;86.20;99513.69;4410407;32;19973;-79
2022/11/12 06:53:22;;;;;;;;;;;;;;;9.38;85.44;99513.94;4410533;32;19966;-79
2022/11/12 06:55:48;;;;;;;;;;;;;;;10.10;81.44;99522.22;4410169;32;19992;-78
2022/11/12 06:58:15;;;;;;;;;;;;;;;10.02;81.23;99518.06;4410446;32;19996;-79
2022/11/12 07:00:42;;;;;;;;;;;;;;;10.37;79.40;99520.06;4409723;32;19977;-79
2022/11/12 07:03:09;;;;;;;;;;;;;;;10.33;79.86;99519.28;4410530;32;19984;-79
2022/11/12 07:05:36;;;;;;;;;;;;;;;10.45;79.62;99523.34;4410377;32;20364;-79
2022/11/12 07:08:04;;;;;;;;;;;;;;;11.13;77.54;99522.84;4409961;32;19981;-79
2022/11/12 07:10:31;;;;;;;;;;;;;;;11.46;77.73;99523.81;4410052;32;19988;-79
2022/11/12 07:12:57;;;;;;;;;;;;;;;11.71;74.93;99526.69;4410481;32;19974;-79
2022/11/12 07:15:24;;;;;;;;;;;;;;;11.89;73.73;99531.44;4409965;32;19974;-80
2022/11/12 07:17:51;;;;;;;;;;;;;;;11.82;73.57;99525.59;4417906;32;19950;-80
2022/11/12 07:20:17;;;;;;;;;;;;;;;11.35;74.93;99538.72;4412804;32;19990;-79
2022/11/12 07:22:44;;;;;;;;;;;;;;;11.28;77.91;99541.44;4396656;32;19965;-79
2022/11/12 07:25:11;;;;;;;;;;;;;;;12.33;74.02;99540.66;4411003;32;19993;-79
2022/11/12 07:27:37;;;;;;;;;;;;;;;13.07;71.86;99541.22;4412216;32;19992;-79
2022/11/12 07:30:05;;;;;;;;;;;;;;;12.64;71.06;99545.88;4411479;32;19973;-79
2022/11/12 07:32:32;;;;;;;;;;;;;;;11.90;74.24;99543.47;4411400;32;20350;-79
2022/11/12 07:35:04;;;;;;;;;;;;;;;11.52;76.19;99547.81;4411803;32;19977;-79
2022/11/12 07:37:30;;;;;;;;;;;;;;;11.11;78.57;99542.69;4411594;32;20072;-79
2022/11/12 07:39:58;;;;;;;;;;;;;;;11.19;78.01;99549.41;4397577;32;19954;-79
2022/11/12 07:42:25;;;;;;;;;;;;;;;11.46;77.71;99535.00;4412207;32;20043;-79
2022/11/12 07:44:52;;;;;;;;;;;;;;;11.11;79.45;99543.53;4412142;32;19984;-79
2022/11/12 07:47:18;;;;;;;;;;;;;;;11.43;78.97;99544.56;4412364;32;19990;-79
2022/11/12 07:49:45;;;;;;;;;;;;;;;12.25;74.12;99546.94;4412805;32;19988;-78
2022/11/12 07:52:12;;;;;;;;;;;;;;;12.85;72.93;99546.16;4399713;32;19953;-79
2022/11/12 07:54:38;;;;;;;;;;;;;;;13.39;72.64;99548.94;4399962;32;20372;-79
2022/11/12 07:57:05;;;;;;;;;;;;;;;13.56;69.07;99540.66;4411763;32;19977;-79
2022/11/12 07:59:32;;;;;;;;;;;;;;;13.48;67.19;99550.41;4412022;32;20438;-79
2022/11/12 08:01:58;;;;;;;;;;;;;;;13.14;69.32;99541.00;4411685;32;19980;-79
2022/11/12 08:04:25;;;;;;;;;;;;;;;13.10;68.57;99536.81;4411078;32;20252;-79
2022/11/12 08:06:52;;;;;;;;;;;;;;;12.83;67.54;99538.44;4411281;32;19992;-79
2022/11/12 08:09:19;;;;;;;;;;;;;;;12.29;70.08;99545.97;4410802;32;19973;-79
2022/11/12 08:11:45;;;;;;;;;;;;;;;12.29;70.39;99533.03;4410841;32;19974;-79
2022/11/12 08:14:12;;;;;;;;;;;;;;;12.07;71.92;99541.34;4411131;32;19997;-79
2022/11/12 08:16:39;;;;;;;;;;;;;;;12.02;72.45;99542.34;4411028;32;19982;-79
2022/11/12 08:19:05;;;;;;;;;;;;;;;11.90;73.80;99547.81;4410348;32;20032;-79
2022/11/12 08:21:32;;;;;;;;;;;;;;;11.47;74.93;99553.94;4411048;32;19977;-79
2022/11/12 08:23:59;;;;;;;;;;;;;;;11.65;75.33;99561.28;4411493;32;20335;-79
2022/11/12 08:26:25;;;;;;;;;;;;;;;11.66;77.33;99552.66;4412685;32;19995;-79
2022/11/12 08:28:52;;;;;;;;;;;;;;;12.15;78.43;99556.69;4414733;32;19950;-79
2022/11/12 08:31:20;;;;;;;;;;;;;;;13.19;75.23;99551.28;4416967;32;19980;-79
2022/11/12 08:33:46;;;;;;;;;;;;;;;14.33;69.99;99549.38;4416064;32;19949;-80
2022/11/12 08:36:13;;;;;;;;;;;;;;;14.72;68.61;99555.81;4415850;32;19977;-80
2022/11/12 08:38:41;;;;;;;;;;;;;;;15.01;66.86;99561.72;4414651;32;19960;-80
2022/11/12 08:41:08;;;;;;;;;;;;;;;14.91;65.96;99555.16;4414163;32;19984;-80
2022/11/12 08:43:35;;;;;;;;;;;;;;;14.87;66.31;99559.59;4413985;32;19981;-80
2022/11/12 08:46:02;;;;;;;;;;;;;;;14.92;65.28;99552.50;4414557;32;19950;-80
2022/11/12 08:48:29;;;;;;;;;;;;;;;14.97;65.53;99560.97;4417219;32;19988;-80
2022/11/12 08:50:56;;;;;;;;;;;;;;;15.03;65.32;99555.53;4415864;32;19942;-80
2022/11/12 08:53:23;;;;;;;;;;;;;;;15.00;65.94;99563.47;4404031;32;19969;-80
2022/11/12 08:55:54;;;;;;;;;;;;;;;15.05;65.84;99581.47;4417744;32;20302;-80
2022/11/12 08:58:21;;;;;;;;;;;;;;;15.61;66.41;99587.16;4416550;32;19984;-80
2022/11/12 09:00:49;;;;;;;;;;;;;;;16.17;62.91;99581.47;4413974;32;19966;-80
2022/11/12 09:03:17;;;;;;;;;;;;;;;17.20;60.76;99584.88;4412925;32;19977;-80
2022/11/12 09:05:44;;;;;;;;;;;;;;;16.96;57.96;99587.66;4401241;32;19946;-80
2022/11/12 09:08:12;;;;;;;;;;;;;;;17.09;59.42;99587.13;4414909;32;19949;-80
2022/11/12 09:10:39;;;;;;;;;;;;;;;18.02;60.33;99583.63;4414027;32;19957;-81
2022/11/12 09:13:05;;;;;;;;;;;;;;;18.66;54.99;99579.59;4414812;32;19977;-80
2022/11/12 09:15:32;;;;;;;;;;;;;;;18.13;55.58;99585.72;4414642;32;20007;-80
2022/11/12 09:18:05;;;;;;;;;;;;;;;18.79;54.10;99596.31;4401430;32;20022;-80
2022/11/12 09:20:31;;;;;;;;;;;;;;;18.14;53.58;99590.84;4414332;32;19962;-80
2022/11/12 09:23:02;;;;;;;;;;;;;;;16.82;58.62;99599.63;4413851;32;19961;-80
2022/11/12 09:25:29;;;;;;;;;;;;;;;15.94;62.30;99594.56;4415610;32;19977;-80
2022/11/12 09:27:55;;;;;;;;;;;;;;;15.63;62.58;99602.75;4413880;32;19974;-80
2022/11/12 09:30:22;;;;;;;;;;;;;;;15.68;63.88;99600.81;4415329;32;20497;-80
2022/11/12 09:32:49;;;;;;;;;;;;;;;14.93;66.67;99593.19;4401342;32;19989;-80
2022/11/12 09:35:16;;;;;;;;;;;;;;;15.65;62.53;99600.09;4415428;32;20711;-79
2022/11/12 09:37:42;;;;;;;;;;;;;;;15.88;59.66;99594.81;4416038;32;19965;-80
2022/11/12 09:40:14;;;;;;;;;;;;;;;15.30;62.72;99590.06;4415498;32;19980;-80
2022/11/12 09:42:41;;;;;;;;;;;;;;;15.08;64.61;99586.56;4401736;32;19957;-80
2022/11/12 09:45:13;;;;;;;;;;;;;;;15.69;63.27;99592.09;4400533;32;20000;-80
2022/11/12 09:47:46;;;;;;;;;;;;;;;15.75;62.81;99589.25;4413889;32;19969;-80
2022/11/12 09:50:32;;;;;;;;;;;;;;;16.09;61.44;99587.91;4399908;32;19946;-80
2022/11/12 09:53:04;;;;;;;;;;;;;;;15.64;61.93;99587.97;4413575;32;20076;-80
2022/11/12 09:55:38;;;;;;;;;;;;;;;16.47;59.76;99588.91;4399355;32;19997;-80
2022/11/12 09:58:12;;;;;;;;;;;;;;;16.84;58.98;99595.19;4411602;32;19973;-80
2022/11/12 10:00:55;;;;;;;;;;;;;;;17.38;56.78;99597.09;4397790;32;19980;-80
2022/11/12 10:03:40;;;;;;;;;;;;;;;17.28;57.45;99587.97;4411912;32;20096;-80
2022/11/12 10:06:09;;;;;;;;;;;;;;;15.78;62.10;99593.47;4413968;32;19996;-80
2022/11/12 10:08:38;;;;;;;;;;;;;;;16.10;61.41;99581.78;4401352;32;19973;-80
2022/11/12 10:11:08;;;;;;;;;;;;;;;16.08;62.21;99587.06;4401720;32;19949;-80
2022/11/12 10:13:50;;;;;;;;;;;;;;;15.53;65.80;99580.56;4417813;32;19992;-80
2022/11/12 10:16:43;;;;;;;;;;;;;;;14.59;69.33;99592.66;4415453;32;19949;-80
2022/11/12 10:19:28;;;;;;;;;;;;;;;14.69;70.06;99587.09;4415546;32;20737;-80
2022/11/12 10:21:55;;;;;;;;;;;;;;;14.11;72.64;99576.03;4414464;32;19970;-80
2022/11/12 10:24:23;;;;;;;;;;;;;;;14.94;69.23;99586.22;4414674;32;19978;-80
2022/11/12 10:26:49;;;;;;;;;;;;;;;15.08;68.87;99590.91;4416450;32;19977;-80
2022/11/12 10:29:22;;;;;;;;;;;;;;;14.24;71.22;99589.47;4400886;32;19961;-80
2022/11/12 10:31:49;;;;;;;;;;;;;;;14.64;69.93;99595.94;4414907;32;19961;-80
2022/11/12 10:34:18;;;;;;;;;;;;;;;14.64;72.39;99593.34;4417218;32;19961;-80
2022/11/12 10:36:46;;;;;;;;;;;;;;;14.41;72.76;99592.34;4417957;32;19981;-80
2022/11/12 10:39:32;;;;;;;;;;;;;;;14.13;74.69;99583.78;4403326;32;19950;-80
2022/11/12 10:42:06;;;;;;;;;;;;;;;14.07;75.03;99592.62;4399385;32;20032;-80
2022/11/12 10:44:33;;;;;;;;;;;;;;;13.94;75.70;99601.72;4401363;32;20008;-80
2022/11/12 10:47:20;;;;;;;;;;;;;;;13.76;76.51;99607.47;4415841;32;19964;-80
2022/11/12 10:50:05;;;;;;;;;;;;;;;13.56;77.85;99613.25;4408323;32;19984;-80
2022/11/12 10:52:32;;;;;;;;;;;;;;;13.18;78.64;99617.75;4413666;32;19974;-79
2022/11/12 10:55:14;;;;;;;;;;;;;;;13.02;80.13;99625.13;4411623;32;20008;-80
2022/11/12 10:57:40;;;;;;;;;;;;;;;12.99;80.08;99624.38;4412757;32;19978;-80
2022/11/12 11:00:13;;;;;;;;;;;;;;;12.36;81.32;99630.34;4411625;32;19954;-80
2022/11/12 11:02:53;;;;;;;;;;;;;;;12.54;80.84;99631.59;4411083;32;19965;-80
2022/11/12 11:05:36;;;;;;;;;;;;;;;12.55;81.75;99625.56;4396648;32;19982;-80
2022/11/12 11:08:03;;;;;;;;;;;;;;;12.81;81.76;99624.88;4410202;32;19981;-80
2022/11/12 11:10:31;;;;;;;;;;;;;;;12.86;80.53;99623.84;4384699;32;19992;-80
2022/11/12 11:13:07;;;;;;;;;;;;;;;12.80;79.93;99621.44;4384785;32;19966;-80
2022/11/12 11:15:34;;;;;;;;;;;;;;;13.06;78.73;99619.84;4409637;32;19977;-80
2022/11/12 11:18:01;;;;;;;;;;;;;;;12.90;80.91;99619.44;4396558;32;19985;-80
2022/11/12 11:20:30;;;;;;;;;;;;;;;13.00;78.52;99626.91;4409819;32;20317;-80
2022/11/12 11:23:09;;;;;;;;;;;;;;;13.20;77.77;99622.97;4410325;32;19973;-80
2022/11/12 11:25:35;;;;;;;;;;;;;;;13.51;77.66;99607.38;4396817;32;19984;-80
2022/11/12 11:28:11;;;;;;;;;;;;;;;13.83;75.62;99616.75;4409847;32;19981;-80
2022/11/12 11:30:40;;;;;;;;;;;;;;;13.48;77.51;99610.88;4409795;32;19969;-80
2022/11/12 11:33:16;;;;;;;;;;;;;;;13.69;77.37;99600.75;4410117;32;19969;-80
2022/11/12 11:35:55;;;;;;;;;;;;;;;13.82;76.35;99595.16;4396106;32;20001;-80
2022/11/12 11:38:33;;;;;;;;;;;;;;;14.20;75.23;99580.09;4409843;32;19985;-80
2022/11/12 11:41:18;;;;;;;;;;;;;;;15.06;70.66;99590.97;4401141;32;279211;-80
2022/11/12 11:43:45;;;;;;;;;;;;;;;15.02;68.73;99590.25;4409632;32;19970;-80
2022/11/12 11:46:27;;;;;;;;;;;;;;;14.94;69.76;99588.81;4410119;32;19992;-80
2022/11/12 11:49:07;;;;;;;;;;;;;;;15.87;65.40;99586.16;4396761;32;20007;-80
2022/11/12 11:51:49;;;;;;;;;;;;;;;15.16;69.03;99592.34;4397703;32;19974;-80
2022/11/12 11:54:27;;;;;;;;;;;;;;;14.49;70.96;99583.50;4411363;32;19976;-80
2022/11/12 11:56:57;;;;;;;;;;;;;;;14.83;69.23;99583.16;4409917;32;20071;-80
2022/11/12 11:59:33;;;;;;;;;;;;;;;14.75;69.99;99580.81;4410683;32;19992;-80
2022/11/12 12:02:11;;;;;;;;;;;;;;;14.34;72.15;99569.22;4410938;32;19970;-80
2022/11/12 12:04:45;;;;;;;;;;;;;;;13.90;74.74;99574.13;4397614;32;19949;-80
2022/11/12 12:07:20;;;;;;;;;;;;;;;13.55;76.76;99583.88;4398132;32;19985;-80
2022/11/12 12:09:50;;;;;;;;;;;;;;;13.52;76.53;99575.34;4398703;32;20060;-80
2022/11/12 12:12:35;;;;;;;;;;;;;;;12.96;80.24;99581.25;4397243;32;19960;-80
2022/11/12 12:15:08;;;;;;;;;;;;;;;13.11;78.57;99579.97;4410938;32;19946;-80
2022/11/12 12:17:39;;;;;;;;;;;;;;;13.64;76.16;99582.75;4410187;32;19954;-80
2022/11/12 12:20:12;;;;;;;;;;;;;;;13.75;77.30;99572.06;4410735;32;19996;-80
2022/11/12 12:22:38;;;;;;;;;;;;;;;14.02;73.92;99571.16;4411170;32;20711;-80
2022/11/12 12:25:13;;;;;;;;;;;;;;;13.66;76.46;99567.16;4412605;32;20005;-80
2022/11/12 12:27:46;;;;;;;;;;;;;;;13.68;76.58;99565.34;4412852;32;19992;-80
2022/11/12 12:30:16;;;;;;;;;;;;;;;13.57;77.12;99576.03;4398829;32;19977;-80
2022/11/12 12:32:49;;;;;;;;;;;;;;;14.38;73.52;99573.44;4398377;32;19978;-80
2022/11/12 12:35:20;;;;;;;;;;;;;;;14.78;70.48;99565.16;4398232;32;19969;-80
2022/11/12 12:37:50;;;;;;;;;;;;;;;14.31;72.41;99558.97;4411761;32;19981;-79
2022/11/12 12:40:21;;;;;;;;;;;;;;;14.26;73.20;99563.47;4398633;32;20248;-80
2022/11/12 12:42:51;;;;;;;;;;;;;;;13.57;76.65;99556.16;4412060;32;19973;-80
2022/11/12 12:45:24;;;;;;;;;;;;;;;14.22;74.29;99544.53;4397716;32;19970;-80
2022/11/12 12:47:51;;;;;;;;;;;;;;;14.32;74.20;99548.53;4398370;32;20029;-80
2022/11/12 12:50:18;;;;;;;;;;;;;;;14.15;73.61;99549.09;4411444;32;19977;-80
2022/11/12 12:53:01;;;;;;;;;;;;;;;13.74;76.03;99547.84;4397766;32;19973;-80
2022/11/12 12:55:35;;;;;;;;;;;;;;;12.98;79.51;99547.53;4412962;32;20264;-80
2022/11/12 12:58:02;;;;;;;;;;;;;;;13.60;77.56;99550.00;4412624;32;19974;-80
2022/11/12 13:00:33;;;;;;;;;;;;;;;13.68;77.11;99558.41;4413077;32;19992;-80
2022/11/12 13:02:59;;;;;;;;;;;;;;;13.35;77.96;99552.50;4398878;32;19969;-80
2022/11/12 13:05:29;;;;;;;;;;;;;;;13.63;76.72;99562.91;4412597;32;19980;-80
2022/11/12 13:07:57;;;;;;;;;;;;;;;13.45;78.30;99555.69;4413497;32;19981;-80
2022/11/12 13:10:40;;;;;;;;;;;;;;;13.52;77.94;99546.84;4398534;32;19981;-80
2022/11/12 13:13:16;;;;;;;;;;;;;;;13.74;76.78;99545.25;4413228;32;19973;-80
2022/11/12 13:15:43;;;;;;;;;;;;;;;13.80;76.05;99546.78;4412913;32;19970;-80
2022/11/12 13:18:10;;;;;;;;;;;;;;;14.22;74.53;99554.06;4412713;32;20558;-80
2022/11/12 13:20:42;;;;;;;;;;;;;;;14.47;73.64;99542.00;4415700;32;19954;-80